sensor_id;sensor_type;location;lat;lon;timestamp;P1;durP1;ratioP1;P2;durP2;ratioP2
66830;SDS011;53739;44.224;22.528;2023-11-22T00:00:35;81.35;;;48.08;;
66830;SDS011;53739;44.224;22.528;2023-11-22T00:03:01;105.75;;;61.80;;
66830;SDS011;53739;44.224;22.528;2023-11-22T00:05:27;80.90;;;48.78;;
66830;SDS011;53739;44.224;22.528;2023-11-22T00:07:53;79.32;;;44.17;;
66830;SDS011;53739;44.224;22.528;2023-11-22T00:10:19;49.30;;;27.30;;
66830;SDS011;53739;44.224;22.528;2023-11-22T00:12:45;131.98;;;67.65;;
66830;SDS011;53739;44.224;22.528;2023-11-22T00:15:11;80.65;;;44.95;;
66830;SDS011;53739;44.224;22.528;2023-11-22T00:17:43;50.17;;;28.60;;
66830;SDS011;53739;44.224;22.528;2023-11-22T00:20:09;153.15;;;75.57;;
66830;SDS011;53739;44.224;22.528;2023-11-22T00:22:35;91.72;;;48.42;;
66830;SDS011;53739;44.224;22.528;2023-11-22T00:25:02;76.68;;;38.72;;
66830;SDS011;53739;44.224;22.528;2023-11-22T00:27:29;53.63;;;29.05;;
66830;SDS011;53739;44.224;22.528;2023-11-22T00:29:56;106.32;;;52.40;;
66830;SDS011;53739;44.224;22.528;2023-11-22T00:32:22;59.80;;;42.03;;
66830;SDS011;53739;44.224;22.528;2023-11-22T00:34:49;52.78;;;37.20;;
66830;SDS011;53739;44.224;22.528;2023-11-22T00:37:15;39.28;;;27.40;;
66830;SDS011;53739;44.224;22.528;2023-11-22T00:39:41;38.25;;;28.75;;
66830;SDS011;53739;44.224;22.528;2023-11-22T00:42:08;24.05;;;16.50;;
66830;SDS011;53739;44.224;22.528;2023-11-22T00:44:34;23.35;;;15.77;;
66830;SDS011;53739;44.224;22.528;2023-11-22T00:47:01;26.05;;;16.75;;
66830;SDS011;53739;44.224;22.528;2023-11-22T00:49:27;31.50;;;17.90;;
66830;SDS011;53739;44.224;22.528;2023-11-22T00:51:54;27.80;;;17.23;;
66830;SDS011;53739;44.224;22.528;2023-11-22T00:54:29;26.45;;;17.88;;
66830;SDS011;53739;44.224;22.528;2023-11-22T00:56:55;24.13;;;15.20;;
66830;SDS011;53739;44.224;22.528;2023-11-22T00:59:21;33.47;;;20.67;;
66830;SDS011;53739;44.224;22.528;2023-11-22T01:01:47;35.25;;;26.48;;
66830;SDS011;53739;44.224;22.528;2023-11-22T01:04:13;27.55;;;16.63;;
66830;SDS011;53739;44.224;22.528;2023-11-22T01:06:40;37.33;;;20.02;;
66830;SDS011;53739;44.224;22.528;2023-11-22T01:09:06;35.53;;;18.65;;
66830;SDS011;53739;44.224;22.528;2023-11-22T01:11:34;23.85;;;17.38;;
66830;SDS011;53739;44.224;22.528;2023-11-22T01:14:00;30.40;;;19.13;;
66830;SDS011;53739;44.224;22.528;2023-11-22T01:16:27;32.85;;;22.10;;
66830;SDS011;53739;44.224;22.528;2023-11-22T01:18:56;36.05;;;26.10;;
66830;SDS011;53739;44.224;22.528;2023-11-22T01:21:22;32.38;;;22.02;;
66830;SDS011;53739;44.224;22.528;2023-11-22T01:23:48;27.75;;;18.00;;
66830;SDS011;53739;44.224;22.528;2023-11-22T01:26:14;24.85;;;18.98;;
66830;SDS011;53739;44.224;22.528;2023-11-22T01:28:42;26.20;;;16.85;;
66830;SDS011;53739;44.224;22.528;2023-11-22T01:31:10;24.48;;;14.18;;
66830;SDS011;53739;44.224;22.528;2023-11-22T01:33:36;21.88;;;14.43;;
66830;SDS011;53739;44.224;22.528;2023-11-22T01:36:09;19.83;;;14.05;;
66830;SDS011;53739;44.224;22.528;2023-11-22T01:38:35;18.83;;;11.43;;
66830;SDS011;53739;44.224;22.528;2023-11-22T01:41:04;19.63;;;12.75;;
66830;SDS011;53739;44.224;22.528;2023-11-22T01:43:31;17.67;;;11.73;;
66830;SDS011;53739;44.224;22.528;2023-11-22T01:45:57;25.48;;;12.45;;
66830;SDS011;53739;44.224;22.528;2023-11-22T01:48:23;20.80;;;14.20;;
66830;SDS011;53739;44.224;22.528;2023-11-22T01:50:49;24.00;;;14.10;;
66830;SDS011;53739;44.224;22.528;2023-11-22T01:53:15;20.05;;;13.00;;
66830;SDS011;53739;44.224;22.528;2023-11-22T01:55:45;69.57;;;29.70;;
66830;SDS011;53739;44.224;22.528;2023-11-22T01:58:12;77.45;;;39.42;;
66830;SDS011;53739;44.224;22.528;2023-11-22T02:00:43;113.38;;;55.75;;
66830;SDS011;53739;44.224;22.528;2023-11-22T02:03:10;35.13;;;18.92;;
66830;SDS011;53739;44.224;22.528;2023-11-22T02:05:39;73.22;;;45.47;;
66830;SDS011;53739;44.224;22.528;2023-11-22T02:08:07;39.45;;;25.88;;
66830;SDS011;53739;44.224;22.528;2023-11-22T02:10:33;34.15;;;22.95;;
66830;SDS011;53739;44.224;22.528;2023-11-22T02:13:01;24.13;;;16.35;;
66830;SDS011;53739;44.224;22.528;2023-11-22T02:15:30;30.05;;;18.95;;
66830;SDS011;53739;44.224;22.528;2023-11-22T02:17:56;23.83;;;14.32;;
66830;SDS011;53739;44.224;22.528;2023-11-22T02:20:23;29.60;;;19.40;;
66830;SDS011;53739;44.224;22.528;2023-11-22T02:22:49;18.13;;;12.88;;
66830;SDS011;53739;44.224;22.528;2023-11-22T02:25:16;19.70;;;14.63;;
66830;SDS011;53739;44.224;22.528;2023-11-22T02:27:42;24.00;;;13.15;;
66830;SDS011;53739;44.224;22.528;2023-11-22T02:30:08;20.10;;;13.40;;
66830;SDS011;53739;44.224;22.528;2023-11-22T02:32:36;16.10;;;9.93;;
66830;SDS011;53739;44.224;22.528;2023-11-22T02:35:04;19.00;;;12.25;;
66830;SDS011;53739;44.224;22.528;2023-11-22T02:47:03;22.48;;;11.48;;
66830;SDS011;53739;44.224;22.528;2023-11-22T03:37:16;14.05;;;7.97;;
66830;SDS011;53739;44.224;22.528;2023-11-22T03:39:39;18.15;;;8.32;;
66830;SDS011;53739;44.224;22.528;2023-11-22T03:42:15;17.38;;;10.48;;
66830;SDS011;53739;44.224;22.528;2023-11-22T03:45:05;17.77;;;11.63;;
66830;SDS011;53739;44.224;22.528;2023-11-22T03:47:31;21.73;;;14.43;;
66830;SDS011;53739;44.224;22.528;2023-11-22T03:50:00;18.80;;;13.75;;
66830;SDS011;53739;44.224;22.528;2023-11-22T03:52:26;22.17;;;16.92;;
66830;SDS011;53739;44.224;22.528;2023-11-22T03:54:53;21.15;;;17.23;;
66830;SDS011;53739;44.224;22.528;2023-11-22T03:57:21;20.23;;;16.17;;
66830;SDS011;53739;44.224;22.528;2023-11-22T03:59:55;21.40;;;14.20;;
66830;SDS011;53739;44.224;22.528;2023-11-22T04:02:21;17.63;;;12.73;;
66830;SDS011;53739;44.224;22.528;2023-11-22T04:04:56;20.05;;;11.30;;
66830;SDS011;53739;44.224;22.528;2023-11-22T04:07:33;15.23;;;9.85;;
66830;SDS011;53739;44.224;22.528;2023-11-22T04:16:01;15.15;;;9.02;;
66830;SDS011;53739;44.224;22.528;2023-11-22T06:44:56;49.53;;;26.17;;
66830;SDS011;53739;44.224;22.528;2023-11-22T06:50:44;47.45;;;24.35;;
66830;SDS011;53739;44.224;22.528;2023-11-22T09:49:13;97.30;;;43.15;;
66830;SDS011;53739;44.224;22.528;2023-11-22T10:11:28;131.63;;;59.17;;
66830;SDS011;53739;44.224;22.528;2023-11-22T13:41:18;60.38;;;34.05;;
66830;SDS011;53739;44.224;22.528;2023-11-22T13:53:24;117.07;;;65.97;;
66830;SDS011;53739;44.224;22.528;2023-11-22T13:56:17;95.47;;;52.95;;
66830;SDS011;53739;44.224;22.528;2023-11-22T14:01:24;89.50;;;55.88;;
66830;SDS011;53739;44.224;22.528;2023-11-22T14:03:54;59.90;;;36.33;;
66830;SDS011;53739;44.224;22.528;2023-11-22T14:06:21;105.50;;;52.42;;
66830;SDS011;53739;44.224;22.528;2023-11-22T14:08:53;99.50;;;49.92;;
66830;SDS011;53739;44.224;22.528;2023-11-22T14:11:20;78.32;;;41.33;;
66830;SDS011;53739;44.224;22.528;2023-11-22T14:13:46;86.95;;;47.83;;
66830;SDS011;53739;44.224;22.528;2023-11-22T14:16:12;99.20;;;56.28;;
66830;SDS011;53739;44.224;22.528;2023-11-22T14:18:40;95.35;;;56.75;;
66830;SDS011;53739;44.224;22.528;2023-11-22T14:21:06;101.03;;;56.25;;
66830;SDS011;53739;44.224;22.528;2023-11-22T14:23:32;79.63;;;44.58;;
66830;SDS011;53739;44.224;22.528;2023-11-22T14:25:58;84.28;;;49.13;;
66830;SDS011;53739;44.224;22.528;2023-11-22T14:28:25;98.45;;;53.55;;
66830;SDS011;53739;44.224;22.528;2023-11-22T14:30:53;222.20;;;113.97;;
66830;SDS011;53739;44.224;22.528;2023-11-22T14:33:22;115.13;;;69.28;;
66830;SDS011;53739;44.224;22.528;2023-11-22T14:35:50;133.55;;;75.40;;
66830;SDS011;53739;44.224;22.528;2023-11-22T14:38:17;83.88;;;47.53;;
66830;SDS011;53739;44.224;22.528;2023-11-22T14:40:43;126.90;;;58.38;;
66830;SDS011;53739;44.224;22.528;2023-11-22T14:43:09;99.30;;;52.13;;
66830;SDS011;53739;44.224;22.528;2023-11-22T14:45:43;99.30;;;50.08;;
66830;SDS011;53739;44.224;22.528;2023-11-22T14:48:09;76.28;;;42.58;;
66830;SDS011;53739;44.224;22.528;2023-11-22T14:50:36;92.85;;;49.30;;
66830;SDS011;53739;44.224;22.528;2023-11-22T14:53:03;89.35;;;50.65;;
66830;SDS011;53739;44.224;22.528;2023-11-22T14:55:29;144.38;;;74.72;;
66830;SDS011;53739;44.224;22.528;2023-11-22T14:57:55;96.43;;;55.97;;
66830;SDS011;53739;44.224;22.528;2023-11-22T15:18:35;153.50;;;83.28;;
66830;SDS011;53739;44.224;22.528;2023-11-22T15:21:12;124.50;;;74.50;;
66830;SDS011;53739;44.224;22.528;2023-11-22T15:23:38;138.27;;;84.85;;
66830;SDS011;53739;44.224;22.528;2023-11-22T15:32:13;105.22;;;67.53;;
66830;SDS011;53739;44.224;22.528;2023-11-22T15:34:48;98.35;;;62.85;;
66830;SDS011;53739;44.224;22.528;2023-11-22T15:37:14;158.77;;;80.43;;
66830;SDS011;53739;44.224;22.528;2023-11-22T15:39:41;142.77;;;71.05;;
66830;SDS011;53739;44.224;22.528;2023-11-22T15:42:08;271.38;;;111.75;;
66830;SDS011;53739;44.224;22.528;2023-11-22T15:44:34;105.93;;;61.42;;
66830;SDS011;53739;44.224;22.528;2023-11-22T15:47:01;197.38;;;103.25;;
66830;SDS011;53739;44.224;22.528;2023-11-22T15:49:30;129.40;;;69.80;;
66830;SDS011;53739;44.224;22.528;2023-11-22T15:51:59;180.27;;;102.82;;
66830;SDS011;53739;44.224;22.528;2023-11-22T15:54:26;144.68;;;88.32;;
66830;SDS011;53739;44.224;22.528;2023-11-22T15:56:52;158.00;;;79.80;;
66830;SDS011;53739;44.224;22.528;2023-11-22T15:59:20;138.55;;;75.85;;
66830;SDS011;53739;44.224;22.528;2023-11-22T16:01:47;90.38;;;60.72;;
66830;SDS011;53739;44.224;22.528;2023-11-22T16:04:13;131.15;;;73.78;;
66830;SDS011;53739;44.224;22.528;2023-11-22T16:06:40;106.88;;;64.97;;
66830;SDS011;53739;44.224;22.528;2023-11-22T16:09:11;142.30;;;76.45;;
66830;SDS011;53739;44.224;22.528;2023-11-22T16:11:55;135.98;;;75.07;;
66830;SDS011;53739;44.224;22.528;2023-11-22T16:16:48;112.50;;;82.53;;
66830;SDS011;53739;44.224;22.528;2023-11-22T16:19:15;91.85;;;63.28;;
66830;SDS011;53739;44.224;22.528;2023-11-22T16:21:44;86.95;;;55.80;;
66830;SDS011;53739;44.224;22.528;2023-11-22T16:24:12;75.20;;;53.25;;
66830;SDS011;53739;44.224;22.528;2023-11-22T16:26:38;64.68;;;46.72;;
66830;SDS011;53739;44.224;22.528;2023-11-22T16:29:05;75.00;;;51.25;;
66830;SDS011;53739;44.224;22.528;2023-11-22T16:31:32;55.15;;;39.67;;
66830;SDS011;53739;44.224;22.528;2023-11-22T16:33:58;59.28;;;43.55;;
66830;SDS011;53739;44.224;22.528;2023-11-22T16:36:24;72.10;;;45.60;;
66830;SDS011;53739;44.224;22.528;2023-11-22T16:38:54;50.90;;;37.17;;
66830;SDS011;53739;44.224;22.528;2023-11-22T16:41:29;66.03;;;45.95;;
66830;SDS011;53739;44.224;22.528;2023-11-22T16:44:16;40.95;;;30.63;;
66830;SDS011;53739;44.224;22.528;2023-11-22T16:52:46;74.85;;;42.67;;
66830;SDS011;53739;44.224;22.528;2023-11-22T16:55:12;70.65;;;42.10;;
66830;SDS011;53739;44.224;22.528;2023-11-22T16:57:42;79.97;;;45.67;;
66830;SDS011;53739;44.224;22.528;2023-11-22T17:00:08;83.32;;;46.33;;
66830;SDS011;53739;44.224;22.528;2023-11-22T17:05:08;68.68;;;40.08;;
66830;SDS011;53739;44.224;22.528;2023-11-22T17:07:49;63.83;;;36.33;;
66830;SDS011;53739;44.224;22.528;2023-11-22T17:10:18;63.33;;;37.28;;
66830;SDS011;53739;44.224;22.528;2023-11-22T17:12:53;71.60;;;43.53;;
66830;SDS011;53739;44.224;22.528;2023-11-22T17:15:19;84.07;;;45.83;;
66830;SDS011;53739;44.224;22.528;2023-11-22T17:17:48;69.88;;;41.42;;
66830;SDS011;53739;44.224;22.528;2023-11-22T17:20:14;62.90;;;38.25;;
66830;SDS011;53739;44.224;22.528;2023-11-22T17:22:40;52.17;;;29.80;;
66830;SDS011;53739;44.224;22.528;2023-11-22T17:25:06;74.88;;;44.95;;
66830;SDS011;53739;44.224;22.528;2023-11-22T17:27:37;82.55;;;43.22;;
66830;SDS011;53739;44.224;22.528;2023-11-22T17:30:03;61.10;;;35.97;;
66830;SDS011;53739;44.224;22.528;2023-11-22T17:32:30;68.97;;;41.00;;
66830;SDS011;53739;44.224;22.528;2023-11-22T17:34:56;71.13;;;42.75;;
66830;SDS011;53739;44.224;22.528;2023-11-22T17:37:22;96.93;;;52.45;;
66830;SDS011;53739;44.224;22.528;2023-11-22T17:39:48;92.40;;;50.55;;
66830;SDS011;53739;44.224;22.528;2023-11-22T17:42:17;85.78;;;44.90;;
66830;SDS011;53739;44.224;22.528;2023-11-22T17:44:43;135.93;;;79.32;;
66830;SDS011;53739;44.224;22.528;2023-11-22T17:47:15;134.88;;;79.53;;
66830;SDS011;53739;44.224;22.528;2023-11-22T17:49:42;125.70;;;79.47;;
66830;SDS011;53739;44.224;22.528;2023-11-22T17:52:08;83.53;;;49.33;;
66830;SDS011;53739;44.224;22.528;2023-11-22T17:54:37;128.00;;;77.72;;
66830;SDS011;53739;44.224;22.528;2023-11-22T17:57:06;85.43;;;50.15;;
66830;SDS011;53739;44.224;22.528;2023-11-22T17:59:35;68.10;;;39.22;;
66830;SDS011;53739;44.224;22.528;2023-11-22T18:07:56;127.57;;;65.97;;
66830;SDS011;53739;44.224;22.528;2023-11-22T18:10:23;113.43;;;63.40;;
66830;SDS011;53739;44.224;22.528;2023-11-22T18:12:49;117.05;;;67.47;;
66830;SDS011;53739;44.224;22.528;2023-11-22T18:15:16;99.10;;;61.58;;
66830;SDS011;53739;44.224;22.528;2023-11-22T18:17:44;110.25;;;67.65;;
66830;SDS011;53739;44.224;22.528;2023-11-22T18:20:10;104.05;;;67.65;;
66830;SDS011;53739;44.224;22.528;2023-11-22T18:22:37;94.45;;;57.58;;
66830;SDS011;53739;44.224;22.528;2023-11-22T18:25:04;93.60;;;55.03;;
66830;SDS011;53739;44.224;22.528;2023-11-22T18:27:33;98.80;;;56.13;;
66830;SDS011;53739;44.224;22.528;2023-11-22T18:29:59;95.63;;;57.95;;
66830;SDS011;53739;44.224;22.528;2023-11-22T18:32:26;99.00;;;55.70;;
66830;SDS011;53739;44.224;22.528;2023-11-22T18:34:53;86.80;;;49.75;;
66830;SDS011;53739;44.224;22.528;2023-11-22T18:37:25;85.00;;;48.05;;
66830;SDS011;53739;44.224;22.528;2023-11-22T18:40:11;85.40;;;48.90;;
66830;SDS011;53739;44.224;22.528;2023-11-22T18:42:37;98.05;;;53.97;;
66830;SDS011;53739;44.224;22.528;2023-11-22T18:45:05;94.47;;;56.78;;
66830;SDS011;53739;44.224;22.528;2023-11-22T18:47:33;84.13;;;50.22;;
66830;SDS011;53739;44.224;22.528;2023-11-22T18:50:07;80.63;;;46.17;;
66830;SDS011;53739;44.224;22.528;2023-11-22T18:52:34;87.75;;;48.17;;
66830;SDS011;53739;44.224;22.528;2023-11-22T18:55:00;76.82;;;43.25;;
66830;SDS011;53739;44.224;22.528;2023-11-22T18:57:31;62.35;;;36.65;;
66830;SDS011;53739;44.224;22.528;2023-11-22T18:59:58;56.53;;;32.85;;
66830;SDS011;53739;44.224;22.528;2023-11-22T19:02:25;56.97;;;34.50;;
66830;SDS011;53739;44.224;22.528;2023-11-22T19:04:51;54.17;;;32.65;;
66830;SDS011;53739;44.224;22.528;2023-11-22T19:07:17;59.33;;;35.53;;
66830;SDS011;53739;44.224;22.528;2023-11-22T19:09:43;49.95;;;30.70;;
66830;SDS011;53739;44.224;22.528;2023-11-22T19:12:13;36.08;;;23.77;;
66830;SDS011;53739;44.224;22.528;2023-11-22T19:20:31;58.72;;;33.97;;
66830;SDS011;53739;44.224;22.528;2023-11-22T19:23:02;56.45;;;30.38;;
66830;SDS011;53739;44.224;22.528;2023-11-22T19:25:31;50.45;;;28.90;;
66830;SDS011;53739;44.224;22.528;2023-11-22T19:27:58;46.08;;;23.88;;
66830;SDS011;53739;44.224;22.528;2023-11-22T19:30:36;38.92;;;21.15;;
66830;SDS011;53739;44.224;22.528;2023-11-22T19:36:23;42.25;;;24.08;;
66830;SDS011;53739;44.224;22.528;2023-11-22T19:38:50;51.83;;;27.02;;
66830;SDS011;53739;44.224;22.528;2023-11-22T19:41:26;42.53;;;24.05;;
66830;SDS011;53739;44.224;22.528;2023-11-22T19:47:05;56.17;;;30.17;;
66830;SDS011;53739;44.224;22.528;2023-11-22T19:49:36;40.55;;;23.42;;
66830;SDS011;53739;44.224;22.528;2023-11-22T19:52:05;46.08;;;27.02;;
66830;SDS011;53739;44.224;22.528;2023-11-22T19:57:26;45.00;;;22.92;;
66830;SDS011;53739;44.224;22.528;2023-11-22T19:59:59;42.88;;;24.00;;
66830;SDS011;53739;44.224;22.528;2023-11-22T20:02:31;45.25;;;23.88;;
66830;SDS011;53739;44.224;22.528;2023-11-22T20:04:57;43.10;;;24.30;;
66830;SDS011;53739;44.224;22.528;2023-11-22T20:07:23;45.72;;;24.60;;
66830;SDS011;53739;44.224;22.528;2023-11-22T20:09:49;51.47;;;27.85;;
66830;SDS011;53739;44.224;22.528;2023-11-22T20:12:17;55.75;;;31.73;;
66830;SDS011;53739;44.224;22.528;2023-11-22T20:14:43;52.63;;;30.52;;
66830;SDS011;53739;44.224;22.528;2023-11-22T20:17:09;60.20;;;30.63;;
66830;SDS011;53739;44.224;22.528;2023-11-22T20:19:37;56.75;;;28.85;;
66830;SDS011;53739;44.224;22.528;2023-11-22T20:22:03;51.65;;;27.67;;
66830;SDS011;53739;44.224;22.528;2023-11-22T20:24:29;53.13;;;27.92;;
66830;SDS011;53739;44.224;22.528;2023-11-22T20:26:55;56.53;;;29.42;;
66830;SDS011;53739;44.224;22.528;2023-11-22T20:29:21;50.10;;;27.73;;
66830;SDS011;53739;44.224;22.528;2023-11-22T20:31:47;63.60;;;29.52;;
66830;SDS011;53739;44.224;22.528;2023-11-22T20:34:14;56.15;;;30.42;;
66830;SDS011;53739;44.224;22.528;2023-11-22T20:36:46;50.20;;;28.45;;
66830;SDS011;53739;44.224;22.528;2023-11-22T20:39:14;43.42;;;23.65;;
66830;SDS011;53739;44.224;22.528;2023-11-22T20:41:45;52.90;;;28.00;;
66830;SDS011;53739;44.224;22.528;2023-11-22T20:44:17;46.20;;;25.65;;
66830;SDS011;53739;44.224;22.528;2023-11-22T20:46:43;61.40;;;33.25;;
66830;SDS011;53739;44.224;22.528;2023-11-22T20:49:20;54.28;;;29.73;;
66830;SDS011;53739;44.224;22.528;2023-11-22T20:51:50;55.67;;;31.45;;
66830;SDS011;53739;44.224;22.528;2023-11-22T20:54:16;56.40;;;31.98;;
66830;SDS011;53739;44.224;22.528;2023-11-22T20:56:42;52.35;;;30.50;;
66830;SDS011;53739;44.224;22.528;2023-11-22T20:59:08;52.67;;;30.13;;
66830;SDS011;53739;44.224;22.528;2023-11-22T21:01:35;65.95;;;32.50;;
66830;SDS011;53739;44.224;22.528;2023-11-22T21:04:01;55.15;;;30.70;;
66830;SDS011;53739;44.224;22.528;2023-11-22T21:06:28;54.47;;;30.95;;
66830;SDS011;53739;44.224;22.528;2023-11-22T21:08:55;55.00;;;31.48;;
66830;SDS011;53739;44.224;22.528;2023-11-22T21:11:21;49.85;;;26.88;;
66830;SDS011;53739;44.224;22.528;2023-11-22T21:13:51;56.17;;;28.92;;
66830;SDS011;53739;44.224;22.528;2023-11-22T21:16:22;59.20;;;30.25;;
66830;SDS011;53739;44.224;22.528;2023-11-22T21:18:48;59.25;;;32.40;;
66830;SDS011;53739;44.224;22.528;2023-11-22T21:21:15;58.72;;;32.38;;
66830;SDS011;53739;44.224;22.528;2023-11-22T21:23:42;57.90;;;29.75;;
66830;SDS011;53739;44.224;22.528;2023-11-22T21:26:08;60.53;;;33.30;;
66830;SDS011;53739;44.224;22.528;2023-11-22T21:28:52;55.05;;;30.65;;
66830;SDS011;53739;44.224;22.528;2023-11-22T21:31:18;58.53;;;32.05;;
66830;SDS011;53739;44.224;22.528;2023-11-22T21:33:46;61.60;;;31.90;;
66830;SDS011;53739;44.224;22.528;2023-11-22T21:36:12;65.78;;;35.20;;
66830;SDS011;53739;44.224;22.528;2023-11-22T21:38:39;70.32;;;35.83;;
66830;SDS011;53739;44.224;22.528;2023-11-22T21:41:06;66.63;;;34.83;;
66830;SDS011;53739;44.224;22.528;2023-11-22T21:43:35;65.28;;;35.47;;
66830;SDS011;53739;44.224;22.528;2023-11-22T21:46:04;67.30;;;35.55;;
66830;SDS011;53739;44.224;22.528;2023-11-22T21:48:34;64.38;;;35.75;;
66830;SDS011;53739;44.224;22.528;2023-11-22T21:51:02;64.70;;;35.08;;
66830;SDS011;53739;44.224;22.528;2023-11-22T21:53:28;68.65;;;34.85;;
66830;SDS011;53739;44.224;22.528;2023-11-22T21:55:55;63.35;;;33.80;;
66830;SDS011;53739;44.224;22.528;2023-11-22T21:58:21;56.15;;;29.95;;
66830;SDS011;53739;44.224;22.528;2023-11-22T22:00:47;54.88;;;30.92;;
66830;SDS011;53739;44.224;22.528;2023-11-22T22:03:21;58.90;;;29.90;;
66830;SDS011;53739;44.224;22.528;2023-11-22T22:05:57;54.65;;;27.75;;
66830;SDS011;53739;44.224;22.528;2023-11-22T22:08:30;48.97;;;26.08;;
66830;SDS011;53739;44.224;22.528;2023-11-22T22:11:00;50.25;;;25.25;;
66830;SDS011;53739;44.224;22.528;2023-11-22T22:13:30;53.67;;;23.02;;
66830;SDS011;53739;44.224;22.528;2023-11-22T22:15:56;45.13;;;23.83;;
66830;SDS011;53739;44.224;22.528;2023-11-22T22:18:30;44.50;;;21.00;;
66830;SDS011;53739;44.224;22.528;2023-11-22T22:21:00;45.65;;;21.83;;
66830;SDS011;53739;44.224;22.528;2023-11-22T22:23:26;47.10;;;23.02;;
66830;SDS011;53739;44.224;22.528;2023-11-22T22:25:52;42.72;;;21.95;;
66830;SDS011;53739;44.224;22.528;2023-11-22T22:28:21;42.85;;;20.05;;
66830;SDS011;53739;44.224;22.528;2023-11-22T22:30:48;36.70;;;18.83;;
66830;SDS011;53739;44.224;22.528;2023-11-22T22:33:14;48.70;;;22.23;;
66830;SDS011;53739;44.224;22.528;2023-11-22T22:35:48;44.72;;;22.23;;
66830;SDS011;53739;44.224;22.528;2023-11-22T22:38:16;51.40;;;21.83;;
66830;SDS011;53739;44.224;22.528;2023-11-22T22:40:50;39.67;;;20.38;;
66830;SDS011;53739;44.224;22.528;2023-11-22T22:43:16;43.60;;;20.92;;
66830;SDS011;53739;44.224;22.528;2023-11-22T22:45:48;46.90;;;22.63;;
66830;SDS011;53739;44.224;22.528;2023-11-22T22:48:17;50.60;;;21.70;;
66830;SDS011;53739;44.224;22.528;2023-11-22T22:50:45;43.58;;;21.48;;
66830;SDS011;53739;44.224;22.528;2023-11-22T22:53:12;47.38;;;23.13;;
66830;SDS011;53739;44.224;22.528;2023-11-22T22:59:06;59.72;;;29.92;;
66830;SDS011;53739;44.224;22.528;2023-11-22T23:01:33;47.65;;;25.98;;
66830;SDS011;53739;44.224;22.528;2023-11-22T23:04:02;68.15;;;32.55;;
66830;SDS011;53739;44.224;22.528;2023-11-22T23:06:29;58.97;;;29.98;;
66830;SDS011;53739;44.224;22.528;2023-11-22T23:08:55;63.60;;;28.42;;
66830;SDS011;53739;44.224;22.528;2023-11-22T23:11:26;60.72;;;29.08;;
66830;SDS011;53739;44.224;22.528;2023-11-22T23:17:32;55.30;;;26.25;;
66830;SDS011;53739;44.224;22.528;2023-11-22T23:20:01;45.35;;;21.23;;
66830;SDS011;53739;44.224;22.528;2023-11-22T23:25:51;41.37;;;19.90;;
66830;SDS011;53739;44.224;22.528;2023-11-22T23:28:22;40.35;;;18.90;;
66830;SDS011;53739;44.224;22.528;2023-11-22T23:30:53;35.17;;;16.83;;
66830;SDS011;53739;44.224;22.528;2023-11-22T23:33:22;32.42;;;15.90;;
66830;SDS011;53739;44.224;22.528;2023-11-22T23:35:51;29.48;;;15.40;;
66830;SDS011;53739;44.224;22.528;2023-11-22T23:38:18;31.50;;;15.95;;
66830;SDS011;53739;44.224;22.528;2023-11-22T23:40:46;35.75;;;16.50;;
66830;SDS011;53739;44.224;22.528;2023-11-22T23:43:30;34.05;;;16.95;;
66830;SDS011;53739;44.224;22.528;2023-11-22T23:46:00;31.05;;;15.50;;
66830;SDS011;53739;44.224;22.528;2023-11-22T23:48:33;33.50;;;18.30;;
66830;SDS011;53739;44.224;22.528;2023-11-22T23:51:11;32.70;;;17.58;;
66830;SDS011;53739;44.224;22.528;2023-11-22T23:53:48;32.72;;;17.80;;
66830;SDS011;53739;44.224;22.528;2023-11-22T23:56:28;28.77;;;15.05;;
66830;SDS011;53739;44.224;22.528;2023-11-22T23:58:56;30.42;;;15.63;;
